This is the latest recevied weather packets stored in our database for station/object HB3YKO-13. If no packets are shown the sender has not sent any weather packets the latest 10 day(s).
| Time | Temp. | Humidity | Pressure | Rain* | Wind** | Luminosity | Snow |
|---|---|---|---|---|---|---|---|
| 1777870486 | -10.56° C | 78% | 0 hPa | 0 mm | - | - | - |
| 1777870186 | -11.11° C | 78% | 0 hPa | 0 mm | - | - | - |
| 1777869886 | -10° C | 78% | 0 hPa | 0 mm | - | - | - |
| 1777869586 | -10° C | 79% | 0 hPa | 0 mm | - | - | - |
| 1777869286 | -10° C | 79% | 0 hPa | 0 mm | - | - | - |
| 1777868986 | -10° C | 80% | 0 hPa | 0 mm | - | - | - |
| 1777868686 | -10° C | 78% | 0 hPa | 0 mm | - | - | - |
| 1777868386 | -10° C | 79% | 0 hPa | 0 mm | - | - | - |
| 1777868086 | -10° C | 79% | 0 hPa | 0 mm | - | - | - |
| 1777867486 | -10° C | 80% | 0 hPa | 0 mm | - | - | - |
| 1777867186 | -10.56° C | 80% | 0 hPa | 0 mm | - | - | - |
| 1777846787 | -10.56° C | 72% | 0 hPa | 0 mm | - | - | - |
| 1777836888 | -9.44° C | 67% | 0 hPa | 0 mm | - | - | - |
| 1777835988 | -8.89° C | 66% | 0 hPa | 0 mm | - | - | - |
| 1777834788 | -9.44° C | 63% | 0 hPa | 0 mm | - | - | - |
| 1777832988 | -8.89° C | 63% | 0 hPa | 0 mm | - | - | - |
| 1777832688 | -8.89° C | 62% | 0 hPa | 0 mm | - | - | - |
| 1777825488 | -11.11° C | 59% | 0 hPa | 0 mm | - | - | - |
| 1777825188 | -9.44° C | 61% | 0 hPa | 0 mm | - | - | - |
| 1777812589 | -17.78° C | 48% | 0 hPa | 0 mm | - | - | - |
| 1777811689 | -17.78° C | 50% | 0 hPa | 0 mm | - | - | - |
| 1777811389 | -17.78° C | 50% | 0 hPa | 0 mm | - | - | - |
| 1777811089 | -17.78° C | 51% | 0 hPa | 0 mm | - | - | - |
| 1777810789 | -17.78° C | 51% | 0 hPa | 0 mm | - | - | - |
| 1777810189 | -17.78° C | 50% | 0 hPa | 0 mm | - | - | - |
* Rain latest hour (hover to see other rain measurements)
** Current wind speed in m/s (hover to see current wind gust speed)